Grand Beach, Canada
Current Conditions -  °F | °C
As of 5:00 PM on Friday 31 Oct 2014 (Local Time) from CYWG Reporting Station
Broken Clouds Broken Clouds  
Wind Chill: 25°   Ceiling: 24000
Heat Index: 36°   Visibility: 15mi
Dew Point: 18°   Wind: 18mph
Humidity: 48%   Direction: 170°S
Pressure: 30.4"   Gusts: NA
Location:  50.55°N, 96.63°W
Report Text: CYWG 312200Z 17016KT 15SM BKN240 02/M08 A3040 RMK CI6 SLP309
Loading
Personal Weather Stations






























Interactive Weather Map
Tropical Storm Tracking
New forecast layout! Learn more

10-Day Weather Forecast

Advertisements
Track Severe Weather on mobile